createdAt,value
2023-03-12T00:00:30.251Z,0.74
2023-03-12T00:03:01.283Z,0.68
2023-03-12T00:05:32.145Z,0.83
2023-03-12T00:08:02.674Z,0.73
2023-03-12T00:10:33.802Z,0.65
2023-03-12T00:13:04.673Z,0.65
2023-03-12T00:15:38.045Z,0.78
2023-03-12T00:18:09.764Z,0.70
2023-03-12T00:20:41.249Z,0.75
2023-03-12T00:23:11.781Z,0.84
2023-03-12T00:25:46.794Z,0.63
2023-03-12T00:28:20.411Z,0.66
2023-03-12T00:30:57.064Z,0.80
2023-03-12T00:33:24.348Z,0.75
2023-03-12T00:35:56.248Z,0.70
2023-03-12T00:38:28.211Z,0.76
2023-03-12T00:41:01.017Z,0.74
2023-03-12T00:43:32.010Z,0.68
2023-03-12T00:46:03.746Z,0.70
2023-03-12T00:48:34.469Z,0.78
2023-03-12T00:51:05.950Z,0.94
2023-03-12T00:53:37.011Z,1.01
2023-03-12T00:56:08.037Z,1.10
2023-03-12T00:58:41.816Z,1.30
2023-03-12T01:01:12.747Z,1.25
2023-03-12T01:03:44.854Z,1.34
2023-03-12T01:06:15.223Z,1.40
2023-03-12T01:08:48.464Z,1.42
2023-03-12T01:11:22.430Z,1.40
2023-03-12T01:13:52.990Z,1.46
2023-03-12T01:16:28.575Z,1.28
2023-03-12T01:19:02.385Z,1.42
2023-03-12T01:21:33.348Z,1.36
2023-03-12T01:24:06.070Z,1.52
2023-03-12T01:26:36.503Z,1.31
2023-03-12T01:29:07.085Z,1.25
2023-03-12T01:31:38.869Z,1.18
2023-03-12T01:34:12.222Z,1.12
2023-03-12T01:36:44.994Z,1.14
2023-03-12T01:39:16.135Z,1.21
2023-03-12T01:41:46.751Z,1.32
2023-03-12T01:44:17.276Z,1.29
2023-03-12T01:46:48.093Z,1.36
2023-03-12T01:49:27.491Z,1.52
2023-03-12T01:52:06.866Z,1.35
2023-03-12T01:54:43.612Z,1.33
2023-03-12T01:57:17.083Z,1.38
2023-03-12T01:59:57.465Z,1.40
2023-03-12T02:02:29.795Z,1.49
2023-03-12T02:05:06.319Z,1.50
2023-03-12T02:07:37.908Z,1.40
2023-03-12T02:10:10.501Z,1.36
2023-03-12T02:12:44.984Z,1.48
2023-03-12T02:15:16.655Z,1.33
2023-03-12T02:17:47.563Z,1.34
2023-03-12T02:20:32.533Z,1.36
2023-03-12T02:23:15.097Z,1.17
2023-03-12T02:25:48.648Z,1.22
2023-03-12T02:28:23.653Z,1.18
2023-03-12T02:30:57.390Z,1.14
2023-03-12T02:33:30.841Z,1.16
2023-03-12T02:36:04.701Z,1.16
2023-03-12T02:38:47.300Z,0.82
2023-03-12T02:41:25.572Z,0.72
2023-03-12T02:44:18.853Z,0.70
2023-03-12T02:46:54.288Z,0.64
2023-03-12T02:49:28.654Z,0.48
2023-03-12T02:52:00.558Z,0.54
2023-03-12T02:54:31.479Z,0.52
2023-03-12T02:57:03.480Z,0.53
2023-03-12T02:59:36.317Z,0.49
2023-03-12T03:02:06.916Z,0.46
2023-03-12T03:04:37.670Z,0.40
2023-03-12T03:07:08.156Z,0.46
2023-03-12T03:09:38.889Z,0.40
2023-03-12T03:12:12.327Z,0.26
2023-03-12T03:14:42.812Z,0.23
2023-03-12T03:17:13.448Z,0.26
2023-03-12T03:19:43.998Z,0.14
2023-03-12T03:22:16.130Z,0.33
2023-03-12T03:24:46.992Z,0.09
2023-03-12T03:27:17.824Z,0.04
2023-03-12T03:32:19.337Z,0.20
2023-03-12T03:34:50.355Z,0.06
2023-03-12T03:37:20.886Z,0.23
2023-03-12T03:39:51.700Z,0.10
2023-03-12T03:42:22.796Z,-0.06
2023-03-12T03:44:54.230Z,-0.04
2023-03-12T03:47:24.895Z,0.00
2023-03-12T03:49:55.504Z,0.10
2023-03-12T03:52:26.878Z,-0.04
2023-03-12T03:54:59.393Z,0.06
2023-03-12T03:57:30.289Z,0.04
2023-03-12T04:00:05.121Z,-0.08
2023-03-12T04:02:35.852Z,-0.10
2023-03-12T04:05:06.751Z,-0.22
2023-03-12T04:07:37.287Z,-0.24
2023-03-12T04:10:08.813Z,-0.10
2023-03-12T04:12:39.416Z,-0.08
2023-03-12T04:15:10.611Z,-0.12
2023-03-12T04:17:42.319Z,-0.15
2023-03-12T04:20:14.781Z,-0.28
2023-03-12T04:22:45.316Z,-0.31
2023-03-12T04:25:15.919Z,-0.10
2023-03-12T04:27:46.468Z,-0.16
2023-03-12T04:30:17.118Z,-0.19
2023-03-12T04:32:47.606Z,-0.24
2023-03-12T04:35:18.283Z,-0.35
2023-03-12T04:37:49.141Z,-0.28
2023-03-12T04:40:20.170Z,-0.14
2023-03-12T04:42:50.951Z,-0.19
2023-03-12T04:45:25.521Z,-0.14
2023-03-12T04:47:56.195Z,-0.22
2023-03-12T04:50:28.121Z,-0.27
2023-03-12T04:52:58.643Z,-0.20
2023-03-12T04:55:29.065Z,-0.30
2023-03-12T04:57:59.767Z,-0.07
2023-03-12T05:00:30.459Z,-0.24
2023-03-12T05:03:01.285Z,-0.28
2023-03-12T05:05:31.891Z,-0.41
2023-03-12T05:08:04.398Z,-0.39
2023-03-12T05:10:35.930Z,-0.34
2023-03-12T05:13:08.068Z,-0.45
2023-03-12T05:15:38.900Z,-0.51
2023-03-12T05:18:09.631Z,-0.46
2023-03-12T05:20:40.515Z,-0.50
2023-03-12T05:23:12.689Z,-0.46
2023-03-12T05:25:43.310Z,-0.45
2023-03-12T05:28:14.243Z,-0.50
2023-03-12T05:30:44.915Z,-0.58
2023-03-12T05:33:16.776Z,-0.50
2023-03-12T05:35:48.974Z,-0.48
2023-03-12T05:38:19.630Z,-0.46
2023-03-12T05:40:59.296Z,-0.48
2023-03-12T05:43:29.865Z,-0.44
2023-03-12T05:46:02.152Z,-0.30
2023-03-12T05:48:35.772Z,-0.33
2023-03-12T05:51:06.636Z,-0.28
2023-03-12T05:53:37.817Z,-0.22
2023-03-12T05:56:11.530Z,-0.28
2023-03-12T05:58:42.107Z,-0.24
2023-03-12T06:01:24.283Z,-0.24
2023-03-12T06:03:55.012Z,-0.14
2023-03-12T06:06:26.237Z,-0.14
2023-03-12T06:08:57.254Z,-0.10
2023-03-12T06:11:28.228Z,-0.10
2023-03-12T06:13:58.864Z,-0.04
2023-03-12T06:16:30.251Z,0.03
2023-03-12T06:19:03.512Z,0.01
2023-03-12T06:21:36.273Z,-0.14
2023-03-12T06:24:07.591Z,-0.05
2023-03-12T06:26:38.491Z,0.14
2023-03-12T06:29:09.560Z,0.06
2023-03-12T06:31:42.337Z,0.16
2023-03-12T06:34:16.885Z,0.22
2023-03-12T06:36:48.886Z,0.23
2023-03-12T06:39:19.625Z,0.48
2023-03-12T06:41:50.410Z,0.39
2023-03-12T06:44:22.528Z,0.74
2023-03-12T06:46:53.811Z,0.68
2023-03-12T06:49:24.955Z,0.65
2023-03-12T06:51:57.145Z,0.62
2023-03-12T06:54:27.688Z,0.78
2023-03-12T06:56:59.453Z,1.02
2023-03-12T06:59:30.042Z,0.86
2023-03-12T07:02:00.598Z,0.86
2023-03-12T07:04:32.009Z,1.06
2023-03-12T07:07:04.886Z,1.30
2023-03-12T07:09:35.310Z,1.46
2023-03-12T07:12:06.038Z,1.66
2023-03-12T07:14:36.582Z,1.86
2023-03-12T07:17:10.990Z,2.10
2023-03-12T07:19:41.860Z,2.28
2023-03-12T07:22:12.539Z,2.31
2023-03-12T07:24:44.570Z,2.36
2023-03-12T07:27:15.122Z,2.36
2023-03-12T07:29:45.926Z,2.47
2023-03-12T07:32:16.564Z,2.54
2023-03-12T07:34:47.732Z,2.54
2023-03-12T07:37:18.258Z,2.45
2023-03-12T07:39:52.541Z,2.44
2023-03-12T07:42:25.310Z,2.52
2023-03-12T07:44:56.136Z,2.52
2023-03-12T07:47:29.208Z,2.46
2023-03-12T07:50:01.486Z,2.64
2023-03-12T07:52:32.160Z,2.64
2023-03-12T07:55:03.379Z,2.66
2023-03-12T07:57:34.514Z,2.54
2023-03-12T08:00:10.846Z,2.78
2023-03-12T08:02:42.104Z,2.74
2023-03-12T08:05:13.838Z,3.02
2023-03-12T08:07:44.248Z,3.38
2023-03-12T08:10:14.990Z,3.06
2023-03-12T08:12:45.943Z,3.10
2023-03-12T08:15:18.143Z,3.12
2023-03-12T08:17:49.086Z,2.89
2023-03-12T08:20:19.789Z,3.08
2023-03-12T08:22:50.775Z,3.38
2023-03-12T08:25:23.842Z,3.28
2023-03-12T08:27:54.353Z,3.12
2023-03-12T08:30:26.440Z,3.32
2023-03-12T08:32:59.768Z,3.49
2023-03-12T08:35:32.687Z,3.66
2023-03-12T08:38:03.276Z,3.60
2023-03-12T08:40:33.892Z,3.90
2023-03-12T08:43:04.453Z,4.05
2023-03-12T08:45:36.811Z,4.40
2023-03-12T08:48:08.033Z,4.46
2023-03-12T08:50:38.450Z,4.66
2023-03-12T08:53:08.975Z,4.92
2023-03-12T08:55:40.542Z,5.14
2023-03-12T08:58:12.232Z,5.03
2023-03-12T09:00:46.016Z,4.84
2023-03-12T09:03:18.184Z,4.76
2023-03-12T09:05:50.084Z,4.74
2023-03-12T09:08:20.540Z,4.88
2023-03-12T09:10:51.566Z,5.02
2023-03-12T09:13:22.199Z,4.72
2023-03-12T09:15:53.358Z,4.84
2023-03-12T09:18:24.526Z,5.02
2023-03-12T09:20:55.263Z,5.13
2023-03-12T09:23:27.503Z,4.96
2023-03-12T09:25:58.926Z,5.44
2023-03-12T09:28:29.332Z,5.72
2023-03-12T09:31:02.793Z,5.76
2023-03-12T09:33:37.217Z,6.32
2023-03-12T09:36:08.917Z,6.16
2023-03-12T09:38:41.117Z,6.02
2023-03-12T09:41:20.120Z,6.07
2023-03-12T09:44:07.268Z,6.10
2023-03-12T09:46:43.825Z,6.32
2023-03-12T09:49:40.313Z,6.62
2023-03-12T09:52:35.155Z,6.88
2023-03-12T09:55:20.619Z,7.02
2023-03-12T09:57:53.380Z,6.86
2023-03-12T10:00:27.253Z,7.21
2023-03-12T10:03:25.027Z,7.36
2023-03-12T10:06:13.796Z,7.42
2023-03-12T10:09:08.171Z,7.67
2023-03-12T10:11:54.020Z,7.80
2023-03-12T10:14:49.429Z,8.26
2023-03-12T10:17:38.716Z,8.12
2023-03-12T10:20:43.971Z,8.48
2023-03-12T10:23:29.934Z,8.04
2023-03-12T10:26:06.031Z,8.41
2023-03-12T10:28:48.328Z,8.60
2023-03-12T10:31:26.630Z,7.99
2023-03-12T10:33:59.825Z,7.70
2023-03-12T10:36:35.974Z,7.80
2023-03-12T10:39:09.435Z,7.54
2023-03-12T10:41:41.631Z,7.16
2023-03-12T10:44:21.740Z,7.32
2023-03-12T10:47:04.245Z,7.23
2023-03-12T10:49:38.891Z,8.00
2023-03-12T10:52:21.777Z,8.11
2023-03-12T10:54:54.309Z,8.33
2023-03-12T10:57:28.251Z,8.11
2023-03-12T11:00:04.990Z,8.29
2023-03-12T11:02:45.909Z,8.10
2023-03-12T11:05:37.648Z,8.41
2023-03-12T11:08:12.499Z,8.76
2023-03-12T11:10:46.141Z,9.34
2023-03-12T11:13:34.176Z,9.08
2023-03-12T11:16:19.537Z,8.64
2023-03-12T11:19:00.576Z,8.82
2023-03-12T11:21:35.859Z,8.70
2023-03-12T11:24:10.774Z,8.81
2023-03-12T11:26:52.860Z,8.50
2023-03-12T11:29:33.389Z,8.60
2023-03-12T11:32:22.206Z,8.66
2023-03-12T11:34:53.434Z,8.83
2023-03-12T11:37:29.547Z,8.85
2023-03-12T11:40:21.243Z,9.06
2023-03-12T11:43:09.946Z,9.32
2023-03-12T11:45:46.670Z,8.90
2023-03-12T11:48:35.421Z,9.01
2023-03-12T11:51:27.018Z,8.38
2023-03-12T11:54:25.258Z,8.16
2023-03-12T11:57:02.169Z,8.12
2023-03-12T11:59:36.919Z,7.92
2023-03-12T12:02:14.700Z,8.06
2023-03-12T12:05:07.504Z,8.34
2023-03-12T12:08:07.481Z,8.71
2023-03-12T12:10:50.062Z,8.89
2023-03-12T12:13:29.554Z,8.76
2023-03-12T12:16:15.142Z,8.72
2023-03-12T12:19:09.422Z,9.05
2023-03-12T12:21:57.981Z,9.33
2023-03-12T12:24:58.444Z,9.50
2023-03-12T12:27:32.654Z,9.10
2023-03-12T12:30:16.348Z,9.36
2023-03-12T12:32:58.830Z,8.70
2023-03-12T12:35:41.000Z,10.06
2023-03-12T12:38:18.127Z,10.26
2023-03-12T12:40:52.858Z,10.74
2023-03-12T12:43:41.109Z,10.32
2023-03-12T12:46:20.785Z,10.02
2023-03-12T12:48:58.150Z,9.64
2023-03-12T12:51:32.522Z,9.29
2023-03-12T12:54:18.435Z,9.00
2023-03-12T12:57:13.688Z,8.80
2023-03-12T13:00:21.120Z,8.65
2023-03-12T13:02:52.918Z,8.58
2023-03-12T13:05:38.680Z,8.68
2023-03-12T13:08:11.100Z,8.46
2023-03-12T13:10:53.155Z,8.50
2023-03-12T13:13:26.819Z,8.18
2023-03-12T13:16:16.213Z,8.14
2023-03-12T13:19:01.235Z,7.88
2023-03-12T13:22:05.654Z,7.60
2023-03-12T13:24:39.521Z,8.01
2023-03-12T13:27:34.037Z,8.29
2023-03-12T13:30:30.457Z,7.98
2023-03-12T13:33:04.036Z,7.54
2023-03-12T13:35:39.571Z,7.54
2023-03-12T13:38:15.464Z,7.48
2023-03-12T13:41:03.227Z,7.01
2023-03-12T13:43:42.521Z,7.04
2023-03-12T13:46:31.221Z,7.03
2023-03-12T13:49:04.728Z,6.54
2023-03-12T13:51:38.465Z,6.66
2023-03-12T13:54:15.857Z,6.81
2023-03-12T13:56:50.263Z,6.94
2023-03-12T13:59:23.101Z,7.18
2023-03-12T14:02:02.449Z,7.54
2023-03-12T14:04:39.045Z,7.45
2023-03-12T14:07:34.550Z,7.68
2023-03-12T14:10:09.058Z,7.46
2023-03-12T14:12:48.686Z,7.25
2023-03-12T14:15:35.306Z,7.14
2023-03-12T14:18:15.682Z,7.15
2023-03-12T14:20:49.974Z,7.14
2023-03-12T14:23:23.690Z,7.13
2023-03-12T14:26:01.295Z,7.10
2023-03-12T14:28:34.887Z,7.18
2023-03-12T14:31:17.097Z,7.16
2023-03-12T14:34:07.539Z,7.11
2023-03-12T14:36:41.123Z,6.67
2023-03-12T14:39:23.505Z,6.75
2023-03-12T14:42:07.748Z,6.28
2023-03-12T14:44:40.053Z,5.97
2023-03-12T14:47:13.633Z,5.92
2023-03-12T14:49:46.556Z,5.94
2023-03-12T14:52:30.864Z,6.06
2023-03-12T14:55:04.561Z,6.02
2023-03-12T14:57:36.681Z,6.02
2023-03-12T15:00:09.973Z,6.46
2023-03-12T15:02:42.018Z,6.46
2023-03-12T15:05:21.256Z,6.18
2023-03-12T15:07:53.156Z,6.40
2023-03-12T15:10:27.966Z,6.42
2023-03-12T15:13:00.832Z,6.26
2023-03-12T15:15:36.183Z,6.39
2023-03-12T15:18:18.509Z,6.16
2023-03-12T15:20:50.578Z,5.88
2023-03-12T15:23:25.334Z,5.97
2023-03-12T15:26:14.236Z,6.16
2023-03-12T15:28:47.417Z,5.77
2023-03-12T15:31:19.562Z,5.97
2023-03-12T15:34:07.552Z,5.94
2023-03-12T15:36:41.170Z,5.50
2023-03-12T15:39:29.898Z,5.30
2023-03-12T15:42:12.362Z,5.08
2023-03-12T15:44:54.949Z,5.18
2023-03-12T15:47:30.320Z,4.88
2023-03-12T15:50:15.634Z,4.92
2023-03-12T15:53:06.432Z,5.12
2023-03-12T15:55:37.409Z,5.30
2023-03-12T15:58:31.191Z,5.39
2023-03-12T16:01:12.691Z,5.26
2023-03-12T16:03:45.528Z,5.14
2023-03-12T16:06:20.553Z,5.12
2023-03-12T16:09:04.653Z,4.94
2023-03-12T16:11:38.401Z,4.87
2023-03-12T16:14:19.068Z,4.70
2023-03-12T16:16:51.414Z,4.58
2023-03-12T16:19:24.292Z,4.74
2023-03-12T16:21:54.786Z,4.72
2023-03-12T16:24:26.576Z,4.78
2023-03-12T16:26:59.612Z,4.90
2023-03-12T16:29:39.674Z,4.74
2023-03-12T16:32:16.311Z,4.80
2023-03-12T16:34:49.946Z,4.73
2023-03-12T16:37:20.401Z,4.64
2023-03-12T16:39:52.072Z,4.82
2023-03-12T16:42:22.960Z,4.85
2023-03-12T16:44:53.699Z,4.69
2023-03-12T16:47:25.864Z,4.71
2023-03-12T16:49:58.767Z,4.44
2023-03-12T16:52:31.422Z,4.38
2023-03-12T16:55:02.579Z,4.26
2023-03-12T16:57:39.454Z,4.24
2023-03-12T17:00:16.715Z,4.18
2023-03-12T17:02:48.016Z,4.13
2023-03-12T17:05:19.263Z,4.11
2023-03-12T17:07:50.078Z,4.22
2023-03-12T17:10:22.884Z,4.30
2023-03-12T17:12:55.693Z,4.18
2023-03-12T17:15:30.685Z,4.04
2023-03-12T17:18:02.757Z,4.07
2023-03-12T17:20:37.304Z,4.07
2023-03-12T17:23:08.993Z,4.12
2023-03-12T17:25:41.586Z,4.32
2023-03-12T17:28:14.420Z,4.27
2023-03-12T17:30:47.393Z,4.37
2023-03-12T17:33:20.785Z,4.28
2023-03-12T17:36:02.455Z,4.23
2023-03-12T17:38:33.402Z,4.36
2023-03-12T17:41:09.444Z,4.24
2023-03-12T17:43:38.137Z,4.32
2023-03-12T17:46:10.442Z,4.35
2023-03-12T17:48:40.985Z,4.38
2023-03-12T17:51:13.140Z,4.52
2023-03-12T17:53:43.553Z,4.36
2023-03-12T17:56:15.731Z,4.70
2023-03-12T17:58:48.446Z,4.56
2023-03-12T18:01:21.612Z,4.41
2023-03-12T18:03:53.472Z,4.43
2023-03-12T18:06:34.238Z,4.31
2023-03-12T18:09:07.309Z,4.06
2023-03-12T18:11:37.848Z,4.04
2023-03-12T18:14:08.321Z,4.18
2023-03-12T18:16:39.392Z,4.10
2023-03-12T18:19:11.804Z,4.06
2023-03-12T18:21:42.416Z,4.00
2023-03-12T18:24:14.449Z,3.81
2023-03-12T18:26:45.683Z,3.74
2023-03-12T18:29:16.312Z,3.78
2023-03-12T18:31:46.930Z,3.66
2023-03-12T18:34:18.087Z,3.61
2023-03-12T18:36:50.165Z,3.74
2023-03-12T18:39:22.274Z,3.64
2023-03-12T18:41:56.267Z,3.64
2023-03-12T18:44:26.840Z,3.65
2023-03-12T18:46:57.952Z,3.61
2023-03-12T18:49:29.988Z,3.76
2023-03-12T18:52:07.669Z,3.86
2023-03-12T18:54:39.219Z,3.64
2023-03-12T18:57:11.788Z,3.64
2023-03-12T18:59:44.054Z,3.68
2023-03-12T19:02:15.639Z,3.64
2023-03-12T19:04:46.356Z,3.59
2023-03-12T19:07:18.937Z,3.72
2023-03-12T19:09:49.567Z,3.74
2023-03-12T19:12:21.965Z,3.65
2023-03-12T19:14:54.925Z,3.67
2023-03-12T19:17:28.478Z,3.79
2023-03-12T19:19:59.421Z,3.58
2023-03-12T19:22:38.514Z,3.60
2023-03-12T19:25:09.586Z,3.78
2023-03-12T19:27:40.464Z,3.62
2023-03-12T19:30:13.906Z,3.76
2023-03-12T19:32:47.377Z,3.70
2023-03-12T19:35:19.918Z,3.80
2023-03-12T19:37:50.926Z,3.90
2023-03-12T19:40:21.861Z,3.88
2023-03-12T19:42:55.661Z,3.93
2023-03-12T19:45:29.321Z,4.04
2023-03-12T19:48:01.712Z,3.96
2023-03-12T19:50:31.932Z,4.00
2023-03-12T19:53:03.081Z,4.08
2023-03-12T19:55:34.890Z,4.04
2023-03-12T19:58:05.658Z,4.02
2023-03-12T20:00:38.013Z,4.08
2023-03-12T20:03:08.717Z,4.26
2023-03-12T20:05:39.320Z,4.20
2023-03-12T20:08:11.146Z,4.16
2023-03-12T20:10:41.627Z,4.27
2023-03-12T20:13:18.019Z,4.24
2023-03-12T20:15:49.988Z,4.30
2023-03-12T20:18:20.721Z,4.24
2023-03-12T20:20:52.200Z,4.40
2023-03-12T20:23:28.670Z,4.50
2023-03-12T20:26:00.135Z,4.50
2023-03-12T20:28:33.329Z,4.66
2023-03-12T20:31:16.058Z,4.58
2023-03-12T20:33:46.710Z,4.72
2023-03-12T20:36:17.593Z,4.63
2023-03-12T20:38:50.992Z,4.72
2023-03-12T20:41:21.478Z,4.79
2023-03-12T20:43:55.056Z,4.77
2023-03-12T20:46:25.698Z,4.90
2023-03-12T20:48:56.881Z,4.93
2023-03-12T20:51:29.513Z,4.91
2023-03-12T20:54:00.426Z,5.07
2023-03-12T20:56:32.013Z,5.18
2023-03-12T20:59:04.149Z,5.08
2023-03-12T21:01:36.959Z,5.15
2023-03-12T21:04:09.929Z,5.26
2023-03-12T21:06:43.617Z,5.08
2023-03-12T21:09:15.591Z,5.32
2023-03-12T21:11:46.199Z,5.22
2023-03-12T21:14:18.174Z,5.30
2023-03-12T21:16:52.459Z,5.22
2023-03-12T21:19:25.008Z,5.27
2023-03-12T21:21:55.827Z,5.32
2023-03-12T21:24:27.862Z,5.40
2023-03-12T21:26:59.961Z,5.26
2023-03-12T21:29:31.482Z,5.24
2023-03-12T21:32:02.038Z,5.22
2023-03-12T21:34:32.809Z,5.34
2023-03-12T21:37:06.094Z,5.24
2023-03-12T21:39:36.817Z,5.39
2023-03-12T21:42:07.261Z,5.26
2023-03-12T21:44:38.927Z,5.39
2023-03-12T21:47:09.971Z,5.36
2023-03-12T21:49:40.384Z,5.38
2023-03-12T21:52:10.909Z,5.21
2023-03-12T21:54:41.749Z,5.24
2023-03-12T21:57:12.442Z,5.36
2023-03-12T21:59:43.079Z,5.33
2023-03-12T22:02:16.865Z,5.40
2023-03-12T22:04:50.484Z,5.42
2023-03-12T22:07:23.201Z,5.48
2023-03-12T22:09:53.772Z,5.56
2023-03-12T22:12:24.433Z,5.66
2023-03-12T22:14:55.825Z,5.49
2023-03-12T22:17:27.810Z,5.58
2023-03-12T22:20:01.252Z,5.63
2023-03-12T22:22:36.737Z,5.69
2023-03-12T22:25:06.211Z,5.72
2023-03-12T22:27:36.703Z,5.74
2023-03-12T22:30:07.984Z,5.86
2023-03-12T22:32:38.689Z,5.72
2023-03-12T22:35:10.262Z,5.74
2023-03-12T22:37:40.836Z,5.71
2023-03-12T22:40:12.527Z,5.70
2023-03-12T22:42:45.023Z,5.61
2023-03-12T22:45:16.925Z,5.68
2023-03-12T22:47:47.780Z,5.72
2023-03-12T22:50:18.713Z,5.75
2023-03-12T22:52:49.333Z,5.99
2023-03-12T22:55:21.425Z,5.98
2023-03-12T22:57:52.201Z,5.92
2023-03-12T23:00:23.516Z,5.92
2023-03-12T23:02:54.376Z,5.97
2023-03-12T23:05:24.955Z,5.84
2023-03-12T23:07:55.442Z,5.80
2023-03-12T23:10:25.898Z,5.82
2023-03-12T23:12:56.731Z,5.94
2023-03-12T23:15:38.727Z,5.87
2023-03-12T23:18:00.149Z,6.04
2023-03-12T23:20:32.143Z,6.16
2023-03-12T23:23:03.485Z,6.18
2023-03-12T23:25:34.169Z,6.15
2023-03-12T23:28:05.880Z,6.32
2023-03-12T23:30:36.421Z,6.36
2023-03-12T23:33:06.837Z,6.20
2023-03-12T23:35:38.243Z,6.28
2023-03-12T23:38:09.136Z,6.25
2023-03-12T23:40:39.798Z,6.31
2023-03-12T23:43:10.268Z,6.16
2023-03-12T23:45:41.489Z,6.30
2023-03-12T23:48:12.809Z,6.30
2023-03-12T23:50:43.291Z,6.26
2023-03-12T23:53:13.956Z,6.36
2023-03-12T23:55:44.744Z,6.35
2023-03-12T23:58:15.292Z,6.44
